Details From LIMP - Parma
To LIMA - Torino Aeritalia
Flight Number -
Tags Routegen Generated
Created
Modified
Stats Distance 122 nm / 227 km
Max Altitude 400 ft / 122 m
Waypoints 9
Social Downloads 1
Likes 0
Share VATSIM

Download

Looking for another format? Having issues loading an existing format? Contact us
Advertisement - Login to hide

Notes

Departing runway 19 LIMP. Arriving runway 10 LIMA.

Route

LIMP +44.75_+010.26 +44.70_+010.21 +44.67_+010.15 +44.66_+010.07 +44.67_+009.99 +44.83_+009.08 +45.07_+007.71 LIMA

ID Type Via Altitude Latitude Longitude Leg Dist Tot Dist Heading (true) Name
O LIMP APT - 0 ft / 0 m 44.81766˚ 10.29313˚ - 0 nm - -
+44.75_+010.26 LATLON - 400 ft / 122 m 44.74852˚ 10.26300˚ 4 nm 4 nm 197° / 197° -
+44.70_+010.21 LATLON - 400 ft / 122 m 44.70240˚ 10.21375˚ 3 nm 7 nm 217° / 217° -
+44.67_+010.15 LATLON - 400 ft / 122 m 44.67102˚ 10.14532˚ 3 nm 11 nm 237° / 237° -
+44.66_+010.07 LATLON - 400 ft / 122 m 44.65817˚ 10.06595˚ 3 nm 14 nm 257° / 257° -
+44.67_+009.99 LATLON - 400 ft / 122 m 44.66540˚ 9.98520˚ 3 nm 18 nm 277° / 277° -
+44.83_+009.08 LATLON - 400 ft / 122 m 44.83181˚ 9.07843˚ 39 nm 58 nm 285° / 284° -
+45.07_+007.71 LATLON - 400 ft / 122 m 45.07099˚ 7.71049˚ 59 nm 118 nm 284° / 283° -
O LIMA APT - 0 ft / 0 m 45.08540˚ 7.61006˚ 4 nm 122 nm 282° / 281° -

Altitude Profile

Advertisement - Login to hide

LIMP

Details ICAO LIMP (PMF)
Name PARMA
Region Italy
Timezone Europe/Rome (UTC+1.0)
Stats Elevation 161 ft / 49 m (AMSL)
Location 44.826774° 10.297108°
Runways 1
Magnetic Variation 2.716° E

METAR

LIMP 180750Z 27004KT CAVOK M01/M05 Q1024

Decode

TAF

TAF LIMP 180500Z 1806/1906 VRB05KT CAVOK

Decode

Departure Runways

ID Width Length Bearing (true) Bearing (mag) Surface Threshold Offset Overrun Length
02 148 ft / 45 m 6,966 ft / 2,123 m 17.20° 14.48° Asphalt 702 ft / 214 m 0 ft / 0 m
20 148 ft / 45 m 6,966 ft / 2,123 m 197.20° 194.48° Asphalt 597 ft / 182 m 0 ft / 0 m

LIMA

Details ICAO LIMA
Name Torino Aeritalia
Region Italy
Timezone Europe/Rome (UTC+1.0)
Stats Elevation 943 ft / 287 m (AMSL)
Location 45.085639° 7.604223°
Runways 2
Magnetic Variation 2.112° E

METAR

LIMA 180800Z 00000KT CAVOK M03/M05 Q1022

Decode

TAF

Not found

Destination Runways

ID Width Length Bearing (true) Bearing (mag) Surface Threshold Offset Overrun Length
10L 98 ft / 30 m 3,515 ft / 1,071 m 101.44° 99.33° Asphalt 0 ft / 0 m 0 ft / 0 m
10R 131 ft / 40 m 2,452 ft / 747 m 101.56° 99.45° Grass 0 ft / 0 m 0 ft / 0 m
28L 131 ft / 40 m 2,452 ft / 747 m 281.57° 279.46° Grass 0 ft / 0 m 0 ft / 0 m
28R 98 ft / 30 m 3,515 ft / 1,071 m 281.45° 279.34° Asphalt 820 ft / 250 m 0 ft / 0 m

Popular Alternatives